createdAt,value
2023-02-05T00:01:18.190Z,77.58
2023-02-05T00:03:48.934Z,77.17
2023-02-05T00:06:16.959Z,77.67
2023-02-05T00:08:45.113Z,78.04
2023-02-05T00:11:13.900Z,77.45
2023-02-05T00:13:46.307Z,77.57
2023-02-05T00:16:21.669Z,78.15
2023-02-05T00:18:54.694Z,77.80
2023-02-05T00:21:24.908Z,78.30
2023-02-05T00:23:52.871Z,78.32
2023-02-05T00:26:23.770Z,78.93
2023-02-05T00:28:52.056Z,78.75
2023-02-05T00:31:23.511Z,78.84
2023-02-05T00:33:56.139Z,78.29
2023-02-05T00:36:25.017Z,77.16
2023-02-05T00:38:53.544Z,77.65
2023-02-05T00:41:21.908Z,78.32
2023-02-05T00:43:52.551Z,77.28
2023-02-05T00:46:24.114Z,77.31
2023-02-05T00:48:53.910Z,77.45
2023-02-05T00:51:24.704Z,77.84
2023-02-05T00:53:56.550Z,78.15
2023-02-05T00:56:24.409Z,79.04
2023-02-05T00:58:57.496Z,79.17
2023-02-05T01:01:26.084Z,79.81
2023-02-05T01:03:55.566Z,80.21
2023-02-05T01:06:24.462Z,80.90
2023-02-05T01:08:54.557Z,81.18
2023-02-05T01:11:23.070Z,80.54
2023-02-05T01:13:51.160Z,81.36
2023-02-05T01:16:21.565Z,80.81
2023-02-05T01:18:50.053Z,81.28
2023-02-05T01:21:22.088Z,81.31
2023-02-05T01:23:50.006Z,80.94
2023-02-05T01:26:18.301Z,81.02
2023-02-05T01:28:47.126Z,81.69
2023-02-05T01:31:16.238Z,81.94
2023-02-05T01:33:45.889Z,82.08
2023-02-05T01:36:13.756Z,82.22
2023-02-05T01:38:43.944Z,82.32
2023-02-05T01:41:13.824Z,81.78
2023-02-05T01:43:42.633Z,81.54
2023-02-05T01:46:30.969Z,81.50
2023-02-05T01:49:00.953Z,80.71
2023-02-05T01:51:33.614Z,80.41
2023-02-05T01:54:05.400Z,79.39
2023-02-05T01:56:37.903Z,79.60
2023-02-05T01:59:15.269Z,79.50
2023-02-05T02:01:45.383Z,80.59
2023-02-05T02:04:20.346Z,80.19
2023-02-05T02:06:49.348Z,80.25
2023-02-05T02:09:21.170Z,80.41
2023-02-05T02:11:50.684Z,80.17
2023-02-05T02:14:19.441Z,79.65
2023-02-05T02:16:49.223Z,80.96
2023-02-05T02:19:24.260Z,80.68
2023-02-05T02:22:18.934Z,80.38
2023-02-05T02:25:25.594Z,80.42
2023-02-05T02:27:58.118Z,79.56
2023-02-05T02:30:32.484Z,79.87
2023-02-05T02:33:09.724Z,79.68
2023-02-05T02:35:47.113Z,79.36
2023-02-05T02:38:22.206Z,79.50
2023-02-05T02:40:55.961Z,78.98
2023-02-05T02:43:33.778Z,79.37
2023-02-05T02:46:07.982Z,79.23
2023-02-05T02:48:41.253Z,78.74
2023-02-05T02:51:13.417Z,79.31
2023-02-05T02:53:45.779Z,79.71
2023-02-05T02:56:17.111Z,79.90
2023-02-05T02:58:50.220Z,79.93
2023-02-05T03:01:25.487Z,79.69
2023-02-05T03:03:59.407Z,79.69
2023-02-05T03:06:33.599Z,79.78
2023-02-05T03:09:05.926Z,79.89
2023-02-05T03:11:34.973Z,79.16
2023-02-05T03:14:05.375Z,79.93
2023-02-05T03:16:33.363Z,80.12
2023-02-05T03:19:02.942Z,79.20
2023-02-05T03:21:35.214Z,79.61
2023-02-05T03:24:10.703Z,79.34
2023-02-05T03:26:40.236Z,79.02
2023-02-05T03:29:13.910Z,79.36
2023-02-05T03:31:56.199Z,78.86
2023-02-05T03:34:40.538Z,78.61
2023-02-05T03:37:18.395Z,79.13
2023-02-05T03:39:58.556Z,78.66
2023-02-05T03:42:36.726Z,79.05
2023-02-05T03:45:22.813Z,79.86
2023-02-05T03:48:14.356Z,79.52
2023-02-05T03:50:50.087Z,80.70
2023-02-05T03:53:25.551Z,81.59
2023-02-05T03:56:01.143Z,80.33
2023-02-05T03:58:35.867Z,79.52
2023-02-05T04:01:09.733Z,79.81
2023-02-05T04:03:38.267Z,79.55
2023-02-05T04:06:07.865Z,79.77
2023-02-05T04:08:37.766Z,81.18
2023-02-05T04:11:07.437Z,81.19
2023-02-05T04:13:36.748Z,79.10
2023-02-05T04:16:06.770Z,80.04
2023-02-05T04:18:34.909Z,80.68
2023-02-05T04:21:03.534Z,81.47
2023-02-05T04:23:33.826Z,79.45
2023-02-05T04:26:03.236Z,79.82
2023-02-05T04:28:31.876Z,79.76
2023-02-05T04:31:03.199Z,78.74
2023-02-05T04:33:33.658Z,78.36
2023-02-05T04:36:04.021Z,78.21
2023-02-05T04:38:39.831Z,79.01
2023-02-05T04:41:08.113Z,79.39
2023-02-05T04:43:40.073Z,80.12
2023-02-05T04:46:09.032Z,80.10
2023-02-05T04:48:39.149Z,79.92
2023-02-05T04:51:09.053Z,80.00
2023-02-05T04:53:37.279Z,79.16
2023-02-05T04:56:07.832Z,79.50
2023-02-05T04:58:39.468Z,78.84
2023-02-05T05:01:16.783Z,79.19
2023-02-05T05:03:46.416Z,78.21
2023-02-05T05:06:17.100Z,78.08
2023-02-05T05:08:45.763Z,78.31
2023-02-05T05:11:16.175Z,77.68
2023-02-05T05:13:46.022Z,79.31
2023-02-05T05:16:15.964Z,79.22
2023-02-05T05:18:44.156Z,78.78
2023-02-05T05:21:14.530Z,79.66
2023-02-05T05:23:42.640Z,77.88
2023-02-05T05:26:13.869Z,77.20
2023-02-05T05:28:42.299Z,77.67
2023-02-05T05:31:12.237Z,77.65
2023-02-05T05:33:41.076Z,77.77
2023-02-05T05:36:11.673Z,77.74
2023-02-05T05:38:41.437Z,77.91
2023-02-05T05:41:27.196Z,78.02
2023-02-05T05:43:56.086Z,79.46
2023-02-05T05:46:32.151Z,79.58
2023-02-05T05:49:02.028Z,79.57
2023-02-05T05:51:32.709Z,80.55
2023-02-05T05:54:03.846Z,81.88
2023-02-05T05:56:32.830Z,80.75
2023-02-05T05:59:01.149Z,81.60
2023-02-05T06:01:29.550Z,81.78
2023-02-05T06:03:57.921Z,81.41
2023-02-05T06:06:28.276Z,82.74
2023-02-05T06:08:56.094Z,83.81
2023-02-05T06:11:27.650Z,85.23
2023-02-05T06:13:57.781Z,85.90
2023-02-05T06:16:27.846Z,86.08
2023-02-05T06:18:57.631Z,85.49
2023-02-05T06:21:26.774Z,85.93
2023-02-05T06:23:54.703Z,85.12
2023-02-05T06:26:24.198Z,86.08
2023-02-05T06:28:58.789Z,85.67
2023-02-05T06:31:27.047Z,84.96
2023-02-05T06:33:56.571Z,85.33
2023-02-05T06:36:25.606Z,85.44
2023-02-05T06:38:55.147Z,85.77
2023-02-05T06:41:24.245Z,85.29
2023-02-05T06:43:52.428Z,86.22
2023-02-05T06:46:22.323Z,87.28
2023-02-05T06:48:51.389Z,86.94
2023-02-05T06:51:19.183Z,87.16
2023-02-05T06:53:47.514Z,86.82
2023-02-05T06:56:15.803Z,86.81
2023-02-05T06:58:44.020Z,87.05
2023-02-05T07:01:15.314Z,86.27
2023-02-05T07:03:48.554Z,87.34
2023-02-05T07:06:16.559Z,87.83
2023-02-05T07:08:45.003Z,87.70
2023-02-05T07:11:14.625Z,88.12
2023-02-05T07:13:44.853Z,87.74
2023-02-05T07:16:15.427Z,88.16
2023-02-05T07:18:49.547Z,88.59
2023-02-05T07:21:18.145Z,89.21
2023-02-05T07:23:49.622Z,90.24
2023-02-05T07:26:20.588Z,89.54
2023-02-05T07:28:48.777Z,90.58
2023-02-05T07:31:19.199Z,91.10
2023-02-05T07:34:01.009Z,90.42
2023-02-05T07:36:29.722Z,89.99
2023-02-05T07:39:00.776Z,90.22
2023-02-05T07:41:32.890Z,89.79
2023-02-05T07:44:02.380Z,89.80
2023-02-05T07:46:30.583Z,90.02
2023-02-05T07:49:00.909Z,89.80
2023-02-05T07:51:28.854Z,89.96
2023-02-05T07:53:59.442Z,90.11
2023-02-05T07:56:29.931Z,90.69
2023-02-05T07:58:58.633Z,90.66
2023-02-05T08:01:28.053Z,89.76
2023-02-05T08:03:55.972Z,89.64
2023-02-05T08:06:27.082Z,90.30
2023-02-05T08:08:56.369Z,89.40
2023-02-05T08:11:26.570Z,89.50
2023-02-05T08:13:54.848Z,89.50
2023-02-05T08:16:22.789Z,90.26
2023-02-05T08:18:52.227Z,90.17
2023-02-05T08:21:22.052Z,90.41
2023-02-05T08:23:57.189Z,90.71
2023-02-05T08:26:28.062Z,90.47
2023-02-05T08:28:57.424Z,91.07
2023-02-05T08:31:25.488Z,91.39
2023-02-05T08:33:58.040Z,90.46
2023-02-05T08:36:28.099Z,89.97
2023-02-05T08:38:58.414Z,89.74
2023-02-05T08:41:28.712Z,89.55
2023-02-05T08:43:56.944Z,89.86
2023-02-05T08:46:31.548Z,89.33
2023-02-05T08:49:05.485Z,89.30
2023-02-05T08:51:36.312Z,89.18
2023-02-05T08:54:13.209Z,89.92
2023-02-05T08:56:46.639Z,89.91
2023-02-05T08:59:15.457Z,89.30
2023-02-05T09:01:47.888Z,89.57
2023-02-05T09:04:21.091Z,89.46
2023-02-05T09:06:49.468Z,89.99
2023-02-05T09:09:21.416Z,90.02
2023-02-05T09:11:50.476Z,89.64
2023-02-05T09:14:18.976Z,89.91
2023-02-05T09:16:48.146Z,88.93
2023-02-05T09:19:16.478Z,90.00
2023-02-05T09:21:46.277Z,88.67
2023-02-05T09:24:22.271Z,88.96
2023-02-05T09:26:54.752Z,89.02
2023-02-05T09:29:25.554Z,88.72
2023-02-05T09:31:54.016Z,88.90
2023-02-05T09:34:22.554Z,89.67
2023-02-05T09:36:53.513Z,89.46
2023-02-05T09:40:01.922Z,88.77
2023-02-05T09:42:21.503Z,88.34
2023-02-05T09:45:06.980Z,88.89
2023-02-05T09:47:42.067Z,88.37
2023-02-05T09:50:17.183Z,89.35
2023-02-05T09:52:52.064Z,89.24
2023-02-05T09:55:29.078Z,88.32
2023-02-05T09:58:02.018Z,88.63
2023-02-05T10:00:34.884Z,89.01
2023-02-05T10:03:14.298Z,88.91
2023-02-05T10:05:49.608Z,88.35
2023-02-05T10:08:26.503Z,89.45
2023-02-05T10:11:02.351Z,88.88
2023-02-05T10:13:38.001Z,90.06
2023-02-05T10:16:29.595Z,90.05
2023-02-05T10:19:10.129Z,90.03
2023-02-05T10:21:52.785Z,89.80
2023-02-05T10:24:43.976Z,89.47
2023-02-05T10:27:21.885Z,90.00
2023-02-05T10:29:59.731Z,89.91
2023-02-05T10:32:44.545Z,90.54
2023-02-05T10:35:25.780Z,90.17
2023-02-05T10:37:58.005Z,90.01
2023-02-05T10:40:35.002Z,89.66
2023-02-05T10:43:18.314Z,88.92
2023-02-05T10:45:46.980Z,89.20
2023-02-05T10:48:32.062Z,89.74
2023-02-05T10:51:03.296Z,90.07
2023-02-05T10:53:33.756Z,89.86
2023-02-05T10:56:03.616Z,89.17
2023-02-05T11:01:31.750Z,90.53
2023-02-05T11:04:03.706Z,90.35
2023-02-05T11:06:39.432Z,89.77
2023-02-05T11:09:30.959Z,90.17
2023-02-05T11:12:01.882Z,89.49
2023-02-05T11:14:36.953Z,89.64
2023-02-05T11:17:15.784Z,89.97
2023-02-05T11:19:54.273Z,89.81
2023-02-05T11:22:28.879Z,89.47
2023-02-05T11:25:11.621Z,90.23
2023-02-05T11:27:39.576Z,89.83
2023-02-05T11:30:50.136Z,90.09
2023-02-05T11:33:36.841Z,89.09
2023-02-05T11:36:09.846Z,89.02
2023-02-05T11:38:54.482Z,90.46
2023-02-05T11:41:31.151Z,89.70
2023-02-05T11:44:01.294Z,89.45
2023-02-05T11:46:35.797Z,90.58
2023-02-05T11:49:06.636Z,89.00
2023-02-05T11:51:45.055Z,89.62
2023-02-05T11:54:25.042Z,89.52
2023-02-05T11:57:08.414Z,90.16
2023-02-05T11:59:37.701Z,88.40
2023-02-05T12:02:30.669Z,89.32
2023-02-05T12:05:05.308Z,89.47
2023-02-05T12:07:39.252Z,89.25
2023-02-05T12:10:15.612Z,89.29
2023-02-05T12:12:51.500Z,88.50
2023-02-05T12:15:26.760Z,88.23
2023-02-05T12:18:08.876Z,87.96
2023-02-05T12:20:47.390Z,88.73
2023-02-05T12:23:31.769Z,87.61
2023-02-05T12:26:20.703Z,88.02
2023-02-05T12:29:02.115Z,88.69
2023-02-05T12:31:43.925Z,88.61
2023-02-05T12:34:27.741Z,88.60
2023-02-05T12:37:18.811Z,88.42
2023-02-05T12:39:53.804Z,88.22
2023-02-05T12:42:31.472Z,88.89
2023-02-05T12:45:24.263Z,88.25
2023-02-05T12:48:07.768Z,87.48
2023-02-05T12:50:55.084Z,88.24
2023-02-05T12:53:42.565Z,87.64
2023-02-05T12:56:43.862Z,86.88
2023-02-05T12:59:19.636Z,86.72
2023-02-05T13:01:57.306Z,87.12
2023-02-05T13:04:31.848Z,87.63
2023-02-05T13:07:05.690Z,86.46
2023-02-05T13:09:44.690Z,86.96
2023-02-05T13:12:17.242Z,86.55
2023-02-05T13:14:53.852Z,86.38
2023-02-05T13:17:26.621Z,85.60
2023-02-05T13:20:00.576Z,85.69
2023-02-05T13:22:50.962Z,85.37
2023-02-05T13:25:52.002Z,85.64
2023-02-05T13:28:47.681Z,85.15
2023-02-05T13:31:28.898Z,84.54
2023-02-05T13:34:01.910Z,83.21
2023-02-05T13:37:00.336Z,83.75
2023-02-05T13:39:55.529Z,84.54
2023-02-05T13:42:54.308Z,85.01
2023-02-05T13:45:39.194Z,85.98
2023-02-05T13:48:42.638Z,87.17
2023-02-05T13:51:30.571Z,86.67
2023-02-05T13:54:20.070Z,85.69
2023-02-05T13:57:14.545Z,85.32
2023-02-05T13:59:54.502Z,84.23
2023-02-05T14:02:35.378Z,83.67
2023-02-05T14:05:05.908Z,86.88
2023-02-05T14:07:36.548Z,85.13
2023-02-05T14:10:09.833Z,84.74
2023-02-05T14:12:41.801Z,84.89
2023-02-05T14:15:37.632Z,84.56
2023-02-05T14:18:06.394Z,85.91
2023-02-05T14:20:38.582Z,86.10
2023-02-05T14:23:16.366Z,87.06
2023-02-05T14:26:12.091Z,88.23
2023-02-05T14:28:51.905Z,87.17
2023-02-05T14:31:55.577Z,87.85
2023-02-05T14:34:48.240Z,88.18
2023-02-05T14:37:30.957Z,88.84
2023-02-05T14:40:01.446Z,88.20
2023-02-05T14:42:31.670Z,87.40
2023-02-05T14:45:04.560Z,88.31
2023-02-05T14:47:37.480Z,87.67
2023-02-05T14:50:17.912Z,87.59
2023-02-05T14:52:53.703Z,87.64
2023-02-05T14:55:26.151Z,88.74
2023-02-05T14:57:58.754Z,88.89
2023-02-05T15:00:32.031Z,89.42
2023-02-05T15:03:24.341Z,88.41
2023-02-05T15:06:03.710Z,89.17
2023-02-05T15:09:00.239Z,88.55
2023-02-05T15:11:45.114Z,88.82
2023-02-05T15:14:41.589Z,88.45
2023-02-05T15:17:49.126Z,89.14
2023-02-05T15:20:36.259Z,89.24
2023-02-05T15:23:35.390Z,88.72
2023-02-05T15:26:09.097Z,88.73
2023-02-05T15:28:43.701Z,88.43
2023-02-05T15:31:22.604Z,89.27
2023-02-05T15:34:00.341Z,88.74
2023-02-05T15:36:35.278Z,88.93
2023-02-05T15:39:15.821Z,88.67
2023-02-05T15:41:46.413Z,87.88
2023-02-05T15:44:23.768Z,88.34
2023-02-05T15:46:52.271Z,87.96
2023-02-05T15:49:30.818Z,87.79
2023-02-05T15:52:00.573Z,88.27
2023-02-05T15:54:36.400Z,88.94
2023-02-05T15:57:07.258Z,88.62
2023-02-05T15:59:36.142Z,88.41
2023-02-05T16:02:09.154Z,88.49
2023-02-05T16:04:41.930Z,87.71
2023-02-05T16:07:23.374Z,88.05
2023-02-05T16:09:58.459Z,89.13
2023-02-05T16:12:26.937Z,88.65
2023-02-05T16:15:01.294Z,88.62
2023-02-05T16:17:35.189Z,89.38
2023-02-05T16:20:14.869Z,88.89
2023-02-05T16:22:46.283Z,88.55
2023-02-05T16:25:34.658Z,87.97
2023-02-05T16:28:10.438Z,89.89
2023-02-05T16:30:42.881Z,89.15
2023-02-05T16:33:25.108Z,88.71
2023-02-05T16:35:55.345Z,88.95
2023-02-05T16:38:24.601Z,89.81
2023-02-05T16:40:57.030Z,88.90
2023-02-05T16:43:33.915Z,88.86
2023-02-05T16:46:25.670Z,90.47
2023-02-05T16:48:57.811Z,89.48
2023-02-05T16:51:36.222Z,89.46
2023-02-05T16:54:28.876Z,89.47
2023-02-05T16:57:05.496Z,91.36
2023-02-05T16:59:36.381Z,87.62
2023-02-05T17:02:10.738Z,87.89
2023-02-05T17:04:40.006Z,88.09
2023-02-05T17:07:20.029Z,87.24
2023-02-05T17:09:49.096Z,87.29
2023-02-05T17:12:39.462Z,88.60
2023-02-05T17:15:27.863Z,88.72
2023-02-05T17:17:58.424Z,89.65
2023-02-05T17:20:37.501Z,90.02
2023-02-05T17:23:13.482Z,89.79
2023-02-05T17:25:46.125Z,89.04
2023-02-05T17:28:21.088Z,89.97
2023-02-05T17:30:53.036Z,90.13
2023-02-05T17:33:23.045Z,90.08
2023-02-05T17:35:51.939Z,88.09
2023-02-05T17:38:24.472Z,89.04
2023-02-05T17:41:13.477Z,89.71
2023-02-05T17:43:47.867Z,89.11
2023-02-05T17:46:19.776Z,88.99
2023-02-05T17:48:49.350Z,90.01
2023-02-05T17:51:20.666Z,89.45
2023-02-05T17:53:56.845Z,89.04
2023-02-05T17:56:27.794Z,88.68
2023-02-05T17:58:58.671Z,88.41
2023-02-05T18:01:29.950Z,88.30
2023-02-05T18:03:59.063Z,88.60
2023-02-05T18:06:27.411Z,88.49
2023-02-05T18:08:55.763Z,88.32
2023-02-05T18:11:29.381Z,89.83
2023-02-05T18:14:01.723Z,88.75
2023-02-05T18:16:32.051Z,88.93
2023-02-05T18:19:01.623Z,88.87
2023-02-05T18:21:30.706Z,89.45
2023-02-05T18:24:02.104Z,88.70
2023-02-05T18:26:31.064Z,88.83
2023-02-05T18:29:02.294Z,89.43
2023-02-05T18:31:35.533Z,88.29
2023-02-05T18:34:06.582Z,87.84
2023-02-05T18:36:35.938Z,88.07
2023-02-05T18:39:05.410Z,88.39
2023-02-05T18:41:35.624Z,88.30
2023-02-05T18:44:06.800Z,87.53
2023-02-05T18:46:36.712Z,88.30
2023-02-05T18:49:10.800Z,88.73
2023-02-05T18:51:39.672Z,88.30
2023-02-05T18:54:08.874Z,88.45
2023-02-05T18:56:39.412Z,87.92
2023-02-05T18:59:15.292Z,87.65
2023-02-05T19:01:44.411Z,88.40
2023-02-05T19:04:15.512Z,89.05
2023-02-05T19:06:45.875Z,87.92
2023-02-05T19:09:14.340Z,88.31
2023-02-05T19:11:45.034Z,88.15
2023-02-05T19:14:20.304Z,88.67
2023-02-05T19:16:51.317Z,88.52
2023-02-05T19:19:25.294Z,88.39
2023-02-05T19:21:59.892Z,88.10
2023-02-05T19:24:28.449Z,88.07
2023-02-05T19:27:00.042Z,87.89
2023-02-05T19:29:29.854Z,87.37
2023-02-05T19:31:58.793Z,88.02
2023-02-05T19:34:30.287Z,87.56
2023-02-05T19:36:59.247Z,88.54
2023-02-05T19:39:31.064Z,88.21
2023-02-05T19:41:59.042Z,87.97
2023-02-05T19:44:34.873Z,88.39
2023-02-05T19:47:05.596Z,87.84
2023-02-05T19:49:34.586Z,88.85
2023-02-05T19:52:03.298Z,88.40
2023-02-05T19:54:34.864Z,89.03
2023-02-05T19:57:03.391Z,88.72
2023-02-05T19:59:32.968Z,88.90
2023-02-05T20:02:01.393Z,89.16
2023-02-05T20:04:31.387Z,88.52
2023-02-05T20:07:00.949Z,88.23
2023-02-05T20:09:32.196Z,87.37
2023-02-05T20:12:01.175Z,87.83
2023-02-05T20:14:29.627Z,86.95
2023-02-05T20:17:03.307Z,87.06
2023-02-05T20:22:31.742Z,86.22
2023-02-05T20:25:01.373Z,86.33
2023-02-05T20:27:29.744Z,87.12
2023-02-05T20:30:15.332Z,87.65
2023-02-05T20:32:53.500Z,87.17
2023-02-05T20:35:22.095Z,87.81
2023-02-05T20:37:50.543Z,86.84
2023-02-05T20:40:35.519Z,87.73
2023-02-05T20:43:06.218Z,86.90
2023-02-05T20:45:35.388Z,88.00
2023-02-05T20:48:05.340Z,87.90
2023-02-05T20:50:36.708Z,87.61
2023-02-05T20:53:07.922Z,86.41
2023-02-05T20:55:36.723Z,86.48
2023-02-05T20:58:04.616Z,87.33
2023-02-05T21:00:35.618Z,87.36
2023-02-05T21:03:17.653Z,87.36
2023-02-05T21:05:46.561Z,86.77
2023-02-05T21:08:15.987Z,86.65
2023-02-05T21:10:47.281Z,86.60
2023-02-05T21:13:15.750Z,86.76
2023-02-05T21:15:54.858Z,87.05
2023-02-05T21:18:39.178Z,87.95
2023-02-05T21:24:03.572Z,87.59
2023-02-05T21:26:36.902Z,88.05
2023-02-05T21:29:10.869Z,89.40
2023-02-05T21:31:42.575Z,89.10
2023-02-05T21:34:17.046Z,88.17
2023-02-05T21:39:37.934Z,86.38
2023-02-05T21:42:09.873Z,86.97
2023-02-05T21:45:25.629Z,86.85
2023-02-05T21:50:43.606Z,88.38
2023-02-05T21:53:13.060Z,88.41
2023-02-05T21:55:41.355Z,88.25
2023-02-05T21:58:10.657Z,87.21
2023-02-05T22:03:28.590Z,87.71
2023-02-05T22:08:54.638Z,86.18
2023-02-05T22:14:13.712Z,86.18
2023-02-05T22:16:51.301Z,86.74
2023-02-05T22:19:20.590Z,87.23
2023-02-05T22:22:33.465Z,87.66
2023-02-05T22:25:03.042Z,86.82
2023-02-05T22:27:31.862Z,86.62
2023-02-05T22:30:00.522Z,86.39
2023-02-05T22:32:29.223Z,87.50
2023-02-05T22:35:01.092Z,88.07
2023-02-05T22:37:29.598Z,87.12
2023-02-05T22:39:58.334Z,87.25
2023-02-05T22:42:33.868Z,87.42
2023-02-05T22:45:03.223Z,86.92
2023-02-05T22:47:32.502Z,87.65
2023-02-05T22:50:01.123Z,87.36
2023-02-05T22:52:30.306Z,88.42
2023-02-05T22:54:58.468Z,87.46
2023-02-05T22:57:28.977Z,89.30
2023-02-05T23:00:20.686Z,89.50
2023-02-05T23:02:49.672Z,90.02
2023-02-05T23:05:19.631Z,90.70
2023-02-05T23:07:50.220Z,90.36
2023-02-05T23:10:19.195Z,89.99
2023-02-05T23:12:50.212Z,90.15
2023-02-05T23:15:20.332Z,88.58
2023-02-05T23:17:52.596Z,88.60
2023-02-05T23:20:22.887Z,88.82
2023-02-05T23:22:54.728Z,88.52
2023-02-05T23:25:24.053Z,89.46
2023-02-05T23:27:54.596Z,88.48
2023-02-05T23:30:24.487Z,88.93
2023-02-05T23:32:54.238Z,89.63
2023-02-05T23:35:22.430Z,88.44
2023-02-05T23:37:50.579Z,87.65
2023-02-05T23:40:20.401Z,87.87
2023-02-05T23:42:48.471Z,86.91
2023-02-05T23:45:20.733Z,86.86
2023-02-05T23:47:49.288Z,86.59
2023-02-05T23:50:17.712Z,86.18
2023-02-05T23:52:45.892Z,86.02
2023-02-05T23:55:15.090Z,86.36
2023-02-05T23:57:43.264Z,85.71
